createdAt,value
2018-10-18T00:02:11.302Z,12.39
2018-10-18T00:04:38.144Z,12.36
2018-10-18T00:07:05.460Z,12.34
2018-10-18T00:09:32.392Z,12.32
2018-10-18T00:11:59.333Z,12.26
2018-10-18T00:14:26.324Z,12.24
2018-10-18T00:16:53.236Z,12.17
2018-10-18T00:19:20.202Z,12.14
2018-10-18T00:21:47.126Z,12.14
2018-10-18T00:24:14.060Z,12.06
2018-10-18T00:26:40.966Z,11.99
2018-10-18T00:29:07.889Z,11.98
2018-10-18T00:31:34.805Z,12.00
2018-10-18T00:34:01.747Z,12.00
2018-10-18T00:36:28.672Z,11.98
2018-10-18T00:38:55.612Z,12.03
2018-10-18T00:41:22.623Z,11.99
2018-10-18T00:43:49.557Z,11.98
2018-10-18T00:46:16.457Z,11.99
2018-10-18T00:48:43.373Z,12.01
2018-10-18T00:51:10.268Z,12.00
2018-10-18T00:53:37.206Z,11.95
2018-10-18T00:56:04.256Z,11.89
2018-10-18T00:58:31.144Z,11.78
2018-10-18T01:00:58.079Z,11.75
2018-10-18T01:03:24.993Z,11.71
2018-10-18T01:05:51.961Z,11.71
2018-10-18T01:08:18.905Z,11.73
2018-10-18T01:10:45.824Z,11.74
2018-10-18T01:13:12.738Z,11.78
2018-10-18T01:15:39.669Z,11.81
2018-10-18T01:18:06.872Z,11.71
2018-10-18T01:20:33.749Z,11.81
2018-10-18T01:23:00.694Z,11.82
2018-10-18T01:25:27.625Z,11.78
2018-10-18T01:27:54.616Z,11.81
2018-10-18T01:30:21.577Z,11.75
2018-10-18T01:32:48.484Z,11.77
2018-10-18T01:35:15.397Z,11.77
2018-10-18T01:37:42.360Z,11.87
2018-10-18T01:40:09.293Z,11.88
2018-10-18T01:42:36.218Z,11.86
2018-10-18T01:45:03.350Z,11.75
2018-10-18T01:47:30.301Z,11.83
2018-10-18T01:49:57.281Z,11.80
2018-10-18T01:52:24.213Z,11.87
2018-10-18T01:54:51.151Z,11.78
2018-10-18T01:57:18.093Z,11.82
2018-10-18T01:59:45.055Z,11.82
2018-10-18T02:02:12.059Z,11.84
2018-10-18T02:04:39.003Z,11.89
2018-10-18T02:07:05.803Z,11.85
2018-10-18T02:09:32.729Z,11.98
2018-10-18T02:11:59.741Z,12.01
2018-10-18T02:14:26.628Z,12.09
2018-10-18T02:16:53.572Z,12.17
2018-10-18T02:19:20.547Z,12.15
2018-10-18T02:21:47.471Z,12.24
2018-10-18T02:24:14.461Z,12.05
2018-10-18T02:26:41.365Z,12.13
2018-10-18T02:29:08.311Z,12.08
2018-10-18T02:31:35.349Z,12.04
2018-10-18T02:34:02.310Z,12.12
2018-10-18T02:36:29.246Z,12.04
2018-10-18T02:38:56.156Z,12.00
2018-10-18T02:41:23.074Z,11.99
2018-10-18T02:43:49.972Z,11.95
2018-10-18T02:46:16.900Z,11.96
2018-10-18T02:48:43.858Z,11.90
2018-10-18T02:51:10.773Z,11.89
2018-10-18T02:53:37.690Z,11.85
2018-10-18T02:56:04.633Z,11.80
2018-10-18T02:58:31.518Z,11.81
2018-10-18T03:00:58.436Z,11.86
2018-10-18T03:03:25.341Z,11.87
2018-10-18T03:05:52.327Z,11.94
2018-10-18T03:08:19.177Z,11.93
2018-10-18T03:10:46.097Z,11.84
2018-10-18T03:13:13.013Z,11.84
2018-10-18T03:15:39.937Z,11.82
2018-10-18T03:18:07.167Z,11.77
2018-10-18T03:20:34.055Z,11.77
2018-10-18T03:23:01.001Z,11.76
2018-10-18T03:25:27.917Z,11.78
2018-10-18T03:27:54.866Z,11.75
2018-10-18T03:30:21.784Z,11.77
2018-10-18T03:32:48.728Z,11.78
2018-10-18T03:35:15.667Z,11.82
2018-10-18T03:37:42.649Z,11.90
2018-10-18T03:40:09.948Z,11.86
2018-10-18T03:42:36.907Z,11.89
2018-10-18T03:45:04.845Z,11.88
2018-10-18T03:47:31.802Z,11.95
2018-10-18T03:49:58.737Z,11.96
2018-10-18T03:52:25.685Z,12.01
2018-10-18T03:54:52.625Z,12.00
2018-10-18T03:57:19.598Z,12.01
2018-10-18T03:59:46.648Z,12.02
2018-10-18T04:02:13.567Z,12.00
2018-10-18T04:04:41.086Z,11.97
2018-10-18T04:07:08.758Z,11.96
2018-10-18T04:09:35.718Z,11.92
2018-10-18T04:12:02.702Z,11.97
2018-10-18T04:14:29.614Z,11.96
2018-10-18T04:16:56.571Z,11.94
2018-10-18T04:19:23.492Z,11.91
2018-10-18T04:21:50.433Z,11.92
2018-10-18T04:24:17.471Z,11.88
2018-10-18T04:26:44.382Z,11.89
2018-10-18T04:29:11.360Z,11.94
2018-10-18T04:31:38.307Z,11.89
2018-10-18T04:34:05.257Z,11.85
2018-10-18T04:36:32.195Z,11.82
2018-10-18T04:38:59.131Z,11.82
2018-10-18T04:41:26.091Z,11.80
2018-10-18T04:43:53.042Z,11.81
2018-10-18T04:46:19.988Z,11.80
2018-10-18T04:48:47.033Z,11.78
2018-10-18T04:51:13.931Z,11.79
2018-10-18T04:53:40.845Z,11.86
2018-10-18T04:56:07.780Z,11.90
2018-10-18T04:58:34.726Z,11.93
2018-10-18T05:01:01.760Z,11.96
2018-10-18T05:03:28.637Z,12.01
2018-10-18T05:05:58.061Z,12.02
2018-10-18T05:08:25.808Z,12.01
2018-10-18T05:10:52.826Z,12.00
2018-10-18T05:13:19.962Z,11.98
2018-10-18T05:15:46.765Z,12.04
2018-10-18T05:18:13.812Z,12.05
2018-10-18T05:20:40.758Z,12.07
2018-10-18T05:23:08.307Z,12.09
2018-10-18T05:25:35.330Z,12.09
2018-10-18T05:28:02.817Z,12.14
2018-10-18T05:30:29.966Z,12.18
2018-10-18T05:32:56.933Z,12.18
2018-10-18T05:35:23.910Z,12.22
2018-10-18T05:37:50.972Z,12.21
2018-10-18T05:40:17.958Z,12.22
2018-10-18T05:42:44.933Z,12.18
2018-10-18T05:45:11.886Z,12.22
2018-10-18T05:47:38.841Z,12.22
2018-10-18T05:50:06.045Z,12.23
2018-10-18T05:52:33.003Z,12.21
2018-10-18T05:54:59.985Z,12.23
2018-10-18T05:57:26.902Z,12.22
2018-10-18T05:59:53.832Z,12.22
2018-10-18T06:02:20.780Z,12.21
2018-10-18T06:04:47.711Z,12.16
2018-10-18T06:07:14.766Z,12.17
2018-10-18T06:09:41.623Z,12.15
2018-10-18T06:12:08.590Z,12.15
2018-10-18T06:14:35.528Z,12.19
2018-10-18T06:17:02.482Z,12.20
2018-10-18T06:19:29.422Z,12.24
2018-10-18T06:21:56.357Z,12.25
2018-10-18T06:24:23.379Z,12.26
2018-10-18T06:26:50.313Z,12.27
2018-10-18T06:29:17.347Z,12.30
2018-10-18T06:31:44.236Z,12.30
2018-10-18T06:34:11.169Z,12.30
2018-10-18T06:36:38.145Z,12.29
2018-10-18T06:39:06.903Z,12.31
2018-10-18T06:41:33.851Z,12.31
2018-10-18T06:44:00.815Z,12.35
2018-10-18T06:46:28.005Z,12.41
2018-10-18T06:48:55.016Z,12.43
2018-10-18T06:51:21.939Z,12.43
2018-10-18T06:53:48.882Z,12.41
2018-10-18T06:56:15.826Z,12.45
2018-10-18T06:58:42.773Z,12.48
2018-10-18T07:01:09.733Z,12.49
2018-10-18T07:03:36.666Z,12.50
2018-10-18T07:06:04.160Z,12.55
2018-10-18T07:08:31.110Z,12.59
2018-10-18T07:10:58.144Z,12.61
2018-10-18T07:13:25.038Z,12.61
2018-10-18T07:15:51.969Z,12.65
2018-10-18T07:18:18.977Z,12.64
2018-10-18T07:20:45.913Z,12.68
2018-10-18T07:23:12.883Z,12.64
2018-10-18T07:25:39.833Z,12.61
2018-10-18T07:28:06.791Z,12.64
2018-10-18T07:30:33.726Z,12.68
2018-10-18T07:33:00.680Z,12.72
2018-10-18T07:35:27.636Z,12.76
2018-10-18T07:37:54.598Z,12.83
2018-10-18T07:40:21.541Z,12.86
2018-10-18T07:42:48.490Z,12.94
2018-10-18T07:45:15.454Z,12.93
2018-10-18T07:47:43.098Z,12.90
2018-10-18T07:50:10.434Z,12.97
2018-10-18T07:52:37.388Z,12.98
2018-10-18T07:55:05.227Z,13.12
2018-10-18T07:57:32.243Z,13.10
2018-10-18T07:59:59.235Z,13.06
2018-10-18T08:02:26.133Z,13.05
2018-10-18T08:04:53.071Z,12.98
2018-10-18T08:07:20.026Z,12.95
2018-10-18T08:09:46.980Z,12.85
2018-10-18T08:12:13.954Z,12.80
2018-10-18T08:14:40.933Z,12.80
2018-10-18T08:17:07.886Z,12.81
2018-10-18T08:19:34.853Z,12.80
2018-10-18T08:22:01.798Z,12.73
2018-10-18T08:24:28.754Z,12.72
2018-10-18T08:26:55.702Z,12.73
2018-10-18T08:29:22.657Z,12.81
2018-10-18T08:31:49.629Z,12.84
2018-10-18T08:34:16.560Z,12.85
2018-10-18T08:36:43.490Z,12.92
2018-10-18T08:39:11.333Z,12.97
2018-10-18T08:41:38.265Z,12.91
2018-10-18T08:44:05.251Z,12.94
2018-10-18T08:46:32.174Z,12.98
2018-10-18T08:48:59.188Z,13.00
2018-10-18T08:51:26.096Z,13.04
2018-10-18T08:53:53.026Z,13.00
2018-10-18T08:56:20.025Z,13.07
2018-10-18T08:58:46.945Z,13.04
2018-10-18T09:01:13.946Z,13.00
2018-10-18T09:03:40.878Z,12.93
2018-10-18T09:06:07.845Z,12.88
2018-10-18T09:08:34.784Z,12.81
2018-10-18T09:11:01.763Z,12.68
2018-10-18T09:13:28.691Z,12.66
2018-10-18T09:15:55.713Z,12.67
2018-10-18T09:18:22.581Z,12.74
2018-10-18T09:20:49.558Z,12.71
2018-10-18T09:23:16.514Z,12.69
2018-10-18T09:25:43.518Z,12.62
2018-10-18T09:28:10.469Z,12.60
2018-10-18T09:30:37.414Z,12.66
2018-10-18T09:33:04.369Z,12.69
2018-10-18T09:35:31.316Z,12.62
2018-10-18T09:37:58.266Z,12.47
2018-10-18T09:40:25.213Z,12.51
2018-10-18T09:42:52.202Z,12.26
2018-10-18T09:45:19.134Z,12.11
2018-10-18T09:47:46.110Z,12.18
2018-10-18T09:50:13.066Z,12.24
2018-10-18T09:52:40.071Z,12.33
2018-10-18T09:55:08.644Z,12.34
2018-10-18T09:57:35.580Z,12.43
2018-10-18T10:00:02.915Z,12.35
2018-10-18T10:02:36.562Z,12.31
2018-10-18T10:05:03.752Z,12.34
2018-10-18T10:07:30.692Z,12.34
2018-10-18T10:09:57.633Z,12.29
2018-10-18T10:12:24.578Z,12.37
2018-10-18T10:14:51.501Z,12.38
2018-10-18T10:17:18.451Z,12.38
2018-10-18T10:19:45.397Z,12.40
2018-10-18T10:22:12.341Z,12.43
2018-10-18T10:24:39.383Z,12.35
2018-10-18T10:27:06.326Z,12.40
2018-10-18T10:29:33.251Z,12.46
2018-10-18T10:32:00.183Z,12.49
2018-10-18T10:34:27.130Z,12.46
2018-10-18T10:36:54.207Z,12.43
2018-10-18T10:39:22.022Z,12.46
2018-10-18T10:41:48.986Z,12.54
2018-10-18T10:44:16.000Z,12.66
2018-10-18T10:46:42.894Z,12.69
2018-10-18T10:49:09.955Z,12.67
2018-10-18T10:51:37.105Z,12.80
2018-10-18T10:54:05.162Z,12.81
2018-10-18T10:56:32.105Z,12.85
2018-10-18T10:58:59.322Z,12.74
2018-10-18T11:01:27.042Z,12.85
2018-10-18T11:03:55.222Z,12.99
2018-10-18T11:06:22.450Z,13.18
2018-10-18T11:08:49.403Z,13.38
2018-10-18T11:11:16.869Z,13.38
2018-10-18T11:13:43.894Z,13.53
2018-10-18T11:16:10.837Z,13.68
2018-10-18T11:18:38.432Z,13.85
2018-10-18T11:21:06.553Z,13.68
2018-10-18T11:23:33.993Z,13.65
2018-10-18T11:26:00.993Z,13.72
2018-10-18T11:28:27.945Z,13.87
2018-10-18T11:30:54.888Z,14.24
2018-10-18T11:33:21.796Z,14.85
2018-10-18T11:35:48.712Z,15.31
2018-10-18T11:38:15.769Z,15.22
2018-10-18T11:40:42.977Z,15.14
2018-10-18T11:43:10.320Z,14.66
2018-10-18T11:45:37.320Z,14.14
2018-10-18T11:48:04.740Z,14.05
2018-10-18T11:50:31.616Z,13.96
2018-10-18T11:52:58.828Z,13.88
2018-10-18T11:55:25.880Z,13.67
2018-10-18T11:57:52.773Z,13.69
2018-10-18T12:00:19.704Z,13.69
2018-10-18T12:02:47.919Z,13.77
2018-10-18T12:05:14.936Z,13.91
2018-10-18T12:07:41.854Z,14.00
2018-10-18T12:10:09.691Z,14.05
2018-10-18T12:12:36.600Z,14.24
2018-10-18T12:15:04.061Z,14.35
2018-10-18T12:17:30.954Z,14.47
2018-10-18T12:19:57.863Z,14.52
2018-10-18T12:22:24.753Z,14.61
2018-10-18T12:24:51.668Z,14.71
2018-10-18T12:27:18.572Z,14.82
2018-10-18T12:29:45.462Z,14.93
2018-10-18T12:32:12.411Z,14.90
2018-10-18T12:34:39.273Z,14.94
2018-10-18T12:37:06.181Z,14.88
2018-10-18T12:39:33.130Z,14.95
2018-10-18T12:42:00.060Z,14.96
2018-10-18T12:44:31.567Z,15.22
2018-10-18T12:46:58.504Z,14.98
2018-10-18T12:49:25.412Z,14.94
2018-10-18T12:51:52.321Z,14.81
2018-10-18T12:54:19.373Z,14.75
2018-10-18T12:56:46.136Z,14.83
2018-10-18T12:59:13.188Z,14.84
2018-10-18T13:01:40.158Z,14.75
2018-10-18T13:04:07.071Z,14.87
2018-10-18T13:06:34.005Z,14.78
2018-10-18T13:09:00.937Z,14.82
2018-10-18T13:11:28.138Z,14.74
2018-10-18T13:13:55.077Z,14.73
2018-10-18T13:16:21.984Z,14.74
2018-10-18T13:18:48.924Z,14.52
2018-10-18T13:21:15.833Z,14.30
2018-10-18T13:23:42.740Z,14.20
2018-10-18T13:26:09.799Z,14.08
2018-10-18T13:28:36.666Z,14.10
2018-10-18T13:31:04.036Z,14.03
2018-10-18T13:33:30.946Z,13.92
2018-10-18T13:35:57.887Z,13.89
2018-10-18T13:38:24.789Z,13.87
2018-10-18T13:40:51.849Z,13.83
2018-10-18T13:43:19.406Z,13.77
2018-10-18T13:45:46.416Z,13.80
2018-10-18T13:48:13.427Z,13.75
2018-10-18T13:50:40.252Z,13.70
2018-10-18T13:53:07.245Z,13.69
2018-10-18T13:55:34.480Z,13.71
2018-10-18T13:58:01.439Z,13.68
2018-10-18T14:00:29.360Z,13.71
2018-10-18T14:02:56.354Z,13.67
2018-10-18T14:05:23.738Z,13.62
2018-10-18T14:07:51.651Z,13.58
2018-10-18T14:10:18.513Z,13.55
2018-10-18T14:12:45.424Z,13.52
2018-10-18T14:15:12.355Z,13.47
2018-10-18T14:17:39.708Z,13.48
2018-10-18T14:20:06.838Z,13.52
2018-10-18T14:22:34.065Z,13.50
2018-10-18T14:25:00.967Z,13.42
2018-10-18T14:27:28.261Z,13.43
2018-10-18T14:29:55.168Z,13.43
2018-10-18T14:32:22.149Z,13.46
2018-10-18T14:34:49.399Z,13.44
2018-10-18T14:37:16.326Z,13.41
2018-10-18T14:39:43.245Z,13.37
2018-10-18T14:42:10.409Z,13.37
2018-10-18T14:44:37.835Z,13.35
2018-10-18T14:47:04.733Z,13.30
2018-10-18T14:49:31.934Z,13.25
2018-10-18T14:51:58.947Z,13.29
2018-10-18T14:54:25.833Z,13.48
2018-10-18T14:56:52.756Z,13.48
2018-10-18T14:59:19.822Z,13.51
2018-10-18T15:01:46.642Z,13.43
2018-10-18T15:04:13.631Z,13.42
2018-10-18T15:06:40.541Z,13.35
2018-10-18T15:09:07.999Z,13.36
2018-10-18T15:11:34.913Z,13.35
2018-10-18T15:14:02.050Z,13.24
2018-10-18T15:16:28.965Z,13.25
2018-10-18T15:18:55.915Z,13.19
2018-10-18T15:21:22.844Z,13.15
2018-10-18T15:23:49.728Z,13.08
2018-10-18T15:26:16.690Z,13.02
2018-10-18T15:28:43.577Z,12.87
2018-10-18T15:31:10.501Z,12.84
2018-10-18T15:33:37.404Z,12.76
2018-10-18T15:36:04.436Z,12.69
2018-10-18T15:38:31.464Z,12.63
2018-10-18T15:40:58.368Z,12.53
2018-10-18T15:43:25.331Z,12.52
2018-10-18T15:45:52.297Z,12.47
2018-10-18T15:48:19.185Z,12.35
2018-10-18T15:50:46.105Z,12.30
2018-10-18T15:53:13.062Z,12.27
2018-10-18T15:55:39.971Z,12.22
2018-10-18T15:58:06.901Z,12.16
2018-10-18T16:00:33.789Z,12.09
2018-10-18T16:03:00.736Z,12.00
2018-10-18T16:05:27.586Z,11.94
2018-10-18T16:07:54.501Z,11.88
2018-10-18T16:10:21.424Z,11.80
2018-10-18T16:12:48.354Z,11.75
2018-10-18T16:15:15.294Z,11.69
2018-10-18T16:17:42.344Z,11.61
2018-10-18T16:20:09.886Z,11.54
2018-10-18T16:22:37.457Z,11.45
2018-10-18T16:25:05.167Z,11.38
2018-10-18T16:27:32.093Z,11.29
2018-10-18T16:29:59.038Z,11.22
2018-10-18T16:32:26.145Z,11.11
2018-10-18T16:34:53.126Z,11.08
2018-10-18T16:37:20.093Z,11.00
2018-10-18T16:39:47.020Z,10.99
2018-10-18T16:42:13.968Z,10.91
2018-10-18T16:44:40.917Z,10.89
2018-10-18T16:47:07.848Z,10.80
2018-10-18T16:49:34.782Z,10.76
2018-10-18T16:52:01.795Z,10.76
2018-10-18T16:54:28.700Z,10.72
2018-10-18T16:56:55.584Z,10.64
2018-10-18T16:59:22.516Z,10.55
2018-10-18T17:01:49.446Z,10.48
2018-10-18T17:04:16.480Z,10.37
2018-10-18T17:06:43.333Z,10.22
2018-10-18T17:09:10.729Z,10.09
2018-10-18T17:11:37.848Z,9.93
2018-10-18T17:14:04.831Z,9.80
2018-10-18T17:16:31.725Z,9.75
2018-10-18T17:18:58.677Z,9.68
2018-10-18T17:21:25.620Z,9.59
2018-10-18T17:23:52.718Z,9.52
2018-10-18T17:26:19.696Z,9.43
2018-10-18T17:28:46.575Z,9.35
2018-10-18T17:31:13.532Z,9.21
2018-10-18T17:33:40.492Z,9.22
2018-10-18T17:36:07.527Z,9.14
2018-10-18T17:38:34.425Z,9.02
2018-10-18T17:41:01.404Z,8.99
2018-10-18T17:43:28.312Z,8.98
2018-10-18T17:45:55.232Z,9.00
2018-10-18T17:48:22.161Z,8.93
2018-10-18T17:50:49.136Z,8.82
2018-10-18T17:53:16.081Z,8.76
2018-10-18T17:55:43.036Z,8.75
2018-10-18T17:58:10.060Z,8.58
2018-10-18T18:00:36.956Z,8.55
2018-10-18T18:03:03.900Z,8.53
2018-10-18T18:05:30.844Z,8.45
2018-10-18T18:07:57.889Z,8.44
2018-10-18T18:10:24.857Z,8.43
2018-10-18T18:12:51.835Z,8.32
2018-10-18T18:15:19.426Z,8.24
2018-10-18T18:17:46.480Z,8.14
2018-10-18T18:20:13.531Z,8.11
2018-10-18T18:22:40.748Z,8.11
2018-10-18T18:25:09.284Z,8.09
2018-10-18T18:27:36.385Z,8.04
2018-10-18T18:30:05.008Z,7.99
2018-10-18T18:32:32.088Z,7.98
2018-10-18T18:34:59.065Z,7.96
2018-10-18T18:37:26.084Z,7.88
2018-10-18T18:39:53.013Z,7.80
2018-10-18T18:42:20.165Z,7.73
2018-10-18T18:44:47.222Z,7.71
2018-10-18T18:47:14.602Z,7.71
2018-10-18T18:49:41.698Z,7.64
2018-10-18T18:52:09.198Z,7.61
2018-10-18T18:54:36.229Z,7.57
2018-10-18T18:57:03.295Z,7.49
2018-10-18T18:59:30.417Z,7.41
2018-10-18T19:01:58.015Z,7.33
2018-10-18T19:04:24.940Z,7.31
2018-10-18T19:06:52.519Z,7.34
2018-10-18T19:09:19.501Z,7.35
2018-10-18T19:11:46.963Z,7.31
2018-10-18T19:14:14.311Z,7.29
2018-10-18T19:16:41.396Z,7.27
2018-10-18T19:19:08.464Z,7.21
2018-10-18T19:21:35.749Z,7.16
2018-10-18T19:24:03.029Z,6.97
2018-10-18T19:26:30.051Z,6.98
2018-10-18T19:29:03.784Z,7.02
2018-10-18T19:31:30.837Z,6.98
2018-10-18T19:33:57.841Z,7.02
2018-10-18T19:36:25.104Z,7.02
2018-10-18T19:38:52.068Z,7.03
2018-10-18T19:41:19.274Z,6.98
2018-10-18T19:43:46.228Z,6.97
2018-10-18T19:46:13.217Z,6.95
2018-10-18T19:48:40.201Z,6.88
2018-10-18T19:51:07.184Z,6.91
2018-10-18T19:53:34.197Z,6.87
2018-10-18T19:56:01.225Z,6.90
2018-10-18T19:58:28.450Z,6.87
2018-10-18T20:00:55.403Z,6.86
2018-10-18T20:03:22.386Z,6.80
2018-10-18T20:05:49.456Z,6.76
2018-10-18T20:08:16.577Z,6.72
2018-10-18T20:10:43.612Z,6.80
2018-10-18T20:13:10.737Z,6.79
2018-10-18T20:15:37.720Z,6.80
2018-10-18T20:18:04.757Z,6.87
2018-10-18T20:20:31.621Z,7.00
2018-10-18T20:22:58.629Z,7.04
2018-10-18T20:25:25.588Z,7.10
2018-10-18T20:27:52.478Z,7.11
2018-10-18T20:30:19.401Z,7.09
2018-10-18T20:32:46.401Z,7.11
2018-10-18T20:35:13.361Z,7.00
2018-10-18T20:37:40.814Z,7.00
2018-10-18T20:40:10.026Z,6.98
2018-10-18T20:42:36.973Z,7.04
2018-10-18T20:45:04.537Z,7.00
2018-10-18T20:47:31.609Z,6.89
2018-10-18T20:49:58.402Z,6.86
2018-10-18T20:52:25.372Z,6.80
2018-10-18T20:54:52.272Z,6.80
2018-10-18T20:57:19.221Z,6.81
2018-10-18T20:59:46.358Z,6.82
2018-10-18T21:02:13.321Z,6.78
2018-10-18T21:04:40.253Z,6.71
2018-10-18T21:07:07.161Z,6.69
2018-10-18T21:09:34.078Z,6.58
2018-10-18T21:12:01.070Z,6.52
2018-10-18T21:14:27.976Z,6.48
2018-10-18T21:16:54.939Z,6.43
2018-10-18T21:19:21.868Z,6.40
2018-10-18T21:21:48.896Z,6.43
2018-10-18T21:24:15.745Z,6.42
2018-10-18T21:26:42.661Z,6.45
2018-10-18T21:29:09.635Z,6.35
2018-10-18T21:31:36.500Z,6.26
2018-10-18T21:34:03.486Z,6.19
2018-10-18T21:36:30.397Z,6.12
2018-10-18T21:38:57.342Z,6.11
2018-10-18T21:41:24.277Z,6.06
2018-10-18T21:43:51.286Z,5.98
2018-10-18T21:46:18.221Z,5.93
2018-10-18T21:48:45.331Z,5.94
2018-10-18T21:51:12.274Z,5.98
2018-10-18T21:53:39.224Z,5.89
2018-10-18T21:56:06.246Z,5.88
2018-10-18T21:58:33.179Z,5.88
2018-10-18T22:01:00.117Z,5.88
2018-10-18T22:03:27.061Z,5.85
2018-10-18T22:05:53.989Z,5.82
2018-10-18T22:08:20.930Z,5.90
2018-10-18T22:10:47.845Z,5.88
2018-10-18T22:13:14.784Z,5.84
2018-10-18T22:15:41.716Z,5.82
2018-10-18T22:18:08.661Z,5.81
2018-10-18T22:20:35.596Z,5.76
2018-10-18T22:23:02.524Z,5.74
2018-10-18T22:25:29.480Z,5.74
2018-10-18T22:27:56.443Z,5.66
2018-10-18T22:30:23.381Z,5.65
2018-10-18T22:32:50.354Z,5.63
2018-10-18T22:35:17.361Z,5.57
2018-10-18T22:37:44.241Z,5.56
2018-10-18T22:40:11.169Z,5.58
2018-10-18T22:42:38.073Z,5.55
2018-10-18T22:45:05.920Z,5.50
2018-10-18T22:47:32.843Z,5.47
2018-10-18T22:49:59.774Z,5.46
2018-10-18T22:52:26.702Z,5.43
2018-10-18T22:54:53.618Z,5.41
2018-10-18T22:57:20.549Z,5.34
2018-10-18T22:59:47.531Z,5.17
2018-10-18T23:02:14.481Z,5.12
2018-10-18T23:04:41.400Z,5.05
2018-10-18T23:07:08.330Z,5.09
2018-10-18T23:09:35.276Z,5.06
2018-10-18T23:12:02.185Z,4.99
2018-10-18T23:14:29.130Z,4.96
2018-10-18T23:16:56.068Z,4.90
2018-10-18T23:19:22.974Z,4.89
2018-10-18T23:21:49.893Z,4.89
2018-10-18T23:24:17.325Z,4.92
2018-10-18T23:26:44.281Z,4.91
2018-10-18T23:29:11.270Z,4.89
2018-10-18T23:31:38.152Z,4.89
2018-10-18T23:34:05.189Z,4.89
2018-10-18T23:36:32.132Z,4.81
2018-10-18T23:38:59.102Z,4.73
2018-10-18T23:41:25.989Z,4.71
2018-10-18T23:43:52.931Z,4.68
2018-10-18T23:46:19.835Z,4.60
2018-10-18T23:48:46.745Z,4.59
2018-10-18T23:51:13.751Z,4.62
2018-10-18T23:53:40.674Z,4.60
2018-10-18T23:56:07.585Z,4.51
2018-10-18T23:58:34.506Z,4.41
